Time;durP1;ratioP1;P1;durP2;ratioP2;P2;SDS_P1;SDS_P2;PMS_P1;PMS_P2;Temp;Humidity;BMP_temperature;BMP_pressure;BME280_temperature;BME280_humidity;BME280_pressure;Samples;Min_cycle;Max_cycle;Signal;HPM_P1;HPM_P2
2021/11/10 00:02:22;;;;;;;1.25;0.88;;;;;;;2.96;57.77;102457.60;1821502;78;20982;-76
2021/11/10 00:04:50;;;;;;;1.12;0.78;;;;;;;2.92;57.69;102460.64;1821305;78;21996;-76
2021/11/10 00:07:17;;;;;;;1.22;0.72;;;;;;;2.88;57.17;102460.20;1821633;78;20852;-75
2021/11/10 00:09:46;;;;;;;0.80;0.50;;;;;;;2.80;56.58;102471.86;1821364;78;20923;-76
2021/11/10 00:12:13;;;;;;;6.42;0.60;;;;;;;2.77;56.82;102475.72;1821349;78;20966;-74
2021/11/10 00:14:40;;;;;;;0.42;0.33;;;;;;;2.79;56.60;102483.50;1821542;78;20891;-76
2021/11/10 00:17:07;;;;;;;1.57;0.62;;;;;;;2.77;56.47;102473.56;1821834;78;21093;-74
2021/11/10 00:19:34;;;;;;;0.80;0.50;;;;;;;2.75;56.49;102484.35;1821381;78;20994;-75
2021/11/10 00:22:01;;;;;;;1.02;0.50;;;;;;;2.70;56.29;102481.31;1821891;78;20998;-75
2021/11/10 00:24:28;;;;;;;1.82;0.75;;;;;;;2.60;56.43;102491.64;1821349;78;20880;-74
2021/11/10 00:26:55;;;;;;;2.15;0.40;;;;;;;2.51;56.88;102498.08;1821703;78;20900;-75
2021/11/10 00:29:21;;;;;;;0.68;0.68;;;;;;;2.47;57.15;102497.22;1821666;78;21977;-75
2021/11/10 00:31:48;;;;;;;1.17;0.50;;;;;;;2.44;57.36;102496.75;1821669;78;20892;-75
2021/11/10 00:34:15;;;;;;;3.00;0.78;;;;;;;2.38;57.54;102495.86;1821481;78;20895;-76
2021/11/10 00:36:45;;;;;;;1.57;0.60;;;;;;;2.27;57.69;102494.11;1821271;78;21409;-74
2021/11/10 00:39:12;;;;;;;1.67;0.60;;;;;;;2.18;58.04;102500.55;1821365;78;21448;-75
2021/11/10 00:41:38;;;;;;;0.50;0.40;;;;;;;2.13;57.98;102505.24;1821947;78;21109;-75
2021/11/10 00:44:06;;;;;;;1.15;0.60;;;;;;;2.06;58.26;102504.34;1821341;78;20895;-74
2021/11/10 00:46:32;;;;;;;0.95;0.75;;;;;;;2.02;58.48;102509.95;1821603;78;22523;-75
2021/11/10 00:49:00;;;;;;;1.10;0.60;;;;;;;1.98;58.84;102515.95;1821415;78;20896;-76
2021/11/10 00:51:28;;;;;;;2.22;0.90;;;;;;;1.94;58.99;102510.75;1821806;78;20833;-74
2021/11/10 00:53:55;;;;;;;2.65;1.35;;;;;;;1.93;59.13;102515.47;1821282;78;21150;-75
2021/11/10 00:56:23;;;;;;;0.82;0.53;;;;;;;1.89;59.25;102524.06;1821062;78;20970;-74
2021/11/10 00:58:50;;;;;;;0.40;0.40;;;;;;;1.88;59.46;102525.79;1821399;78;20880;-75
2021/11/10 01:01:17;;;;;;;0.90;0.80;;;;;;;1.88;59.65;102535.28;1821294;78;20915;-75
2021/11/10 01:03:44;;;;;;;1.37;1.00;;;;;;;1.84;59.85;102544.73;1821447;78;21385;-75
2021/11/10 01:06:11;;;;;;;1.32;0.65;;;;;;;1.82;60.09;102541.26;1821404;78;21596;-75
2021/11/10 01:08:40;;;;;;;2.02;0.40;;;;;;;1.83;60.08;102554.66;1821322;78;21393;-75
2021/11/10 01:11:06;;;;;;;1.20;0.53;;;;;;;1.82;60.44;102552.50;1821344;78;20907;-78
2021/11/10 01:13:35;;;;;;;0.82;0.42;;;;;;;1.85;60.46;102557.69;1821377;78;21105;-76
2021/11/10 01:16:04;;;;;;;1.52;0.60;;;;;;;1.83;60.45;102562.41;1821604;78;20971;-75
2021/11/10 01:18:31;;;;;;;2.40;0.82;;;;;;;1.82;60.68;102560.26;1821515;78;21161;-75
2021/11/10 01:21:00;;;;;;;2.30;0.70;;;;;;;1.81;60.43;102561.09;1821139;78;20876;-75
2021/11/10 01:23:28;;;;;;;0.70;0.65;;;;;;;1.81;60.36;102568.00;1822037;78;20872;-76
2021/11/10 01:25:55;;;;;;;2.33;0.80;;;;;;;1.79;60.14;102581.34;1821493;78;21409;-77
2021/11/10 01:28:22;;;;;;;3.27;1.15;;;;;;;1.76;60.09;102586.07;1821845;78;20943;-75
2021/11/10 01:30:50;;;;;;;1.57;0.82;;;;;;;1.72;60.12;102592.06;1821548;78;21569;-75
2021/11/10 01:33:17;;;;;;;0.65;0.50;;;;;;;1.68;60.03;102590.73;1821467;78;20859;-75
2021/11/10 01:35:44;;;;;;;0.85;0.60;;;;;;;1.66;60.10;102602.34;1821494;78;20974;-74
2021/11/10 01:38:12;;;;;;;2.08;1.02;;;;;;;1.59;60.23;102604.01;1821227;78;20970;-75
2021/11/10 01:40:39;;;;;;;3.37;0.90;;;;;;;1.54;60.30;102606.13;1821609;78;20986;-75
2021/11/10 01:43:17;;;;;;;2.60;0.93;;;;;;;1.54;60.49;102612.59;1821518;78;21148;-75
2021/11/10 01:45:46;;;;;;;2.27;0.88;;;;;;;1.53;60.74;102623.34;1821549;78;20918;-74
2021/11/10 01:48:15;;;;;;;1.50;1.00;;;;;;;1.51;60.80;102624.18;1789842;78;20978;-76
2021/11/10 01:50:43;;;;;;;0.65;0.60;;;;;;;1.48;60.64;102628.03;1821521;78;20916;-76
2021/11/10 01:53:12;;;;;;;1.82;0.93;;;;;;;1.43;60.70;102634.02;1821621;78;20907;-75
2021/11/10 01:55:39;;;;;;;0.70;0.50;;;;;;;1.41;60.30;102639.59;1821496;78;21234;-75
2021/11/10 01:58:07;;;;;;;0.85;0.72;;;;;;;1.35;59.69;102645.98;1821462;78;20872;-74
2021/11/10 02:00:38;;;;;;;1.07;0.62;;;;;;;1.28;59.79;102642.05;1821486;78;20855;-75
2021/11/10 02:03:07;;;;;;;2.40;0.80;;;;;;;1.19;59.57;102651.84;1821661;78;20934;-75
2021/11/10 02:05:36;;;;;;;0.60;0.60;;;;;;;1.13;59.54;102651.33;1808582;78;21586;-76
2021/11/10 02:08:04;;;;;;;1.30;0.47;;;;;;;1.07;59.69;102655.56;1821481;78;21081;-76
2021/11/10 02:10:31;;;;;;;0.85;0.68;;;;;;;1.02;59.78;102648.64;1821859;78;20990;-75
2021/11/10 02:12:59;;;;;;;1.62;0.60;;;;;;;0.95;59.62;102644.23;1821633;78;20887;-74
2021/11/10 02:15:27;;;;;;;0.70;0.45;;;;;;;0.90;60.03;102651.49;1821948;78;20930;-75
2021/11/10 02:17:58;;;;;;;0.75;0.55;;;;;;;0.86;60.04;102655.73;1821488;78;20883;-75
2021/11/10 02:20:30;;;;;;;3.22;0.90;;;;;;;0.82;60.13;102665.58;1821559;78;21158;-76
2021/11/10 02:22:58;;;;;;;0.93;0.72;;;;;;;0.81;60.34;102672.89;1821400;78;21357;-75
2021/11/10 02:25:28;;;;;;;3.75;1.30;;;;;;;0.80;61.32;102680.18;1821806;78;20998;-76
2021/11/10 02:27:54;;;;;;;1.15;0.95;;;;;;;0.80;62.22;102681.08;1821258;78;20982;-75
2021/11/10 02:30:20;;;;;;;1.35;1.00;;;;;;;0.78;63.10;102683.20;1821606;78;20884;-75
2021/11/10 02:32:50;;;;;;;1.07;0.78;;;;;;;0.75;63.97;102689.16;1789783;78;21075;-75
2021/11/10 02:35:22;;;;;;;1.67;0.85;;;;;;;0.73;64.29;102689.98;1821405;78;20924;-76
2021/11/10 02:37:53;;;;;;;3.65;1.15;;;;;;;0.68;64.99;102695.09;1821356;78;21037;-75
2021/11/10 02:40:20;;;;;;;2.27;1.67;;;;;;;0.63;65.21;102698.47;1821649;78;21020;-76
2021/11/10 02:42:47;;;;;;;2.08;0.90;;;;;;;0.60;65.27;102707.00;1821653;78;20853;-76
2021/11/10 02:45:14;;;;;;;1.40;1.20;;;;;;;0.60;65.52;102714.35;1821506;78;21373;-76
2021/11/10 02:47:43;;;;;;;1.32;1.22;;;;;;;0.57;65.82;102713.00;1821458;78;21421;-75
2021/11/10 02:50:10;;;;;;;3.70;1.35;;;;;;;0.54;65.96;102710.81;1821517;78;20879;-74
2021/11/10 02:52:37;;;;;;;1.80;1.02;;;;;;;0.52;66.16;102709.48;1821554;78;20884;-75
2021/11/10 02:55:05;;;;;;;1.87;1.50;;;;;;;0.47;66.23;102716.70;1821390;78;20982;-76
2021/11/10 02:57:32;;;;;;;4.70;1.10;;;;;;;0.45;66.36;102718.41;1821384;78;21122;-77
2021/11/10 02:59:59;;;;;;;1.95;1.10;;;;;;;0.40;66.49;102717.91;1821429;78;20836;-75
2021/11/10 03:02:30;;;;;;;1.80;1.25;;;;;;;0.39;66.60;102727.77;1821387;78;20923;-74
2021/11/10 03:04:58;;;;;;;3.98;1.30;;;;;;;0.36;66.69;102730.75;1821292;78;21346;-74
2021/11/10 03:07:25;;;;;;;2.35;1.15;;;;;;;0.30;66.85;102742.25;1821507;78;20915;-74
2021/11/10 03:09:53;;;;;;;2.70;2.25;;;;;;;0.26;66.99;102741.74;1822174;78;21094;-74
2021/11/10 03:12:23;;;;;;;8.43;4.55;;;;;;;0.22;67.15;102739.52;1821061;78;20979;-76
2021/11/10 03:14:50;;;;;;;2.55;1.32;;;;;;;0.23;67.26;102745.14;1821468;78;20880;-76
2021/11/10 03:17:19;;;;;;;2.80;0.88;;;;;;;0.20;67.42;102749.84;1821352;78;20931;-76
2021/11/10 03:19:47;;;;;;;3.80;1.52;;;;;;;0.19;67.48;102750.66;1821443;78;21372;-75
2021/11/10 03:22:15;;;;;;;2.02;1.10;;;;;;;0.14;67.62;102757.46;1821376;78;21748;-75
2021/11/10 03:24:44;;;;;;;2.27;1.05;;;;;;;0.11;67.74;102752.66;1821758;78;20936;-74
2021/11/10 03:27:12;;;;;;;1.37;1.25;;;;;;;0.08;67.83;102758.63;1821729;78;20974;-75
2021/11/10 03:29:41;;;;;;;2.55;1.75;;;;;;;0.09;67.86;102767.23;1821333;78;20995;-74
2021/11/10 03:32:10;;;;;;;1.90;1.30;;;;;;;0.09;67.86;102768.52;1821486;78;20896;-75
2021/11/10 03:34:37;;;;;;;4.05;1.30;;;;;;;0.05;67.94;102775.36;1821630;78;21137;-74
2021/11/10 03:37:06;;;;;;;1.52;1.35;;;;;;;0.05;68.00;102782.23;1821339;78;21013;-75
2021/11/10 03:39:35;;;;;;;3.17;1.70;;;;;;;0.02;68.11;102782.16;1821366;78;21398;-75
2021/11/10 03:42:03;;;;;;;2.62;1.50;;;;;;;-0.02;68.08;102781.25;1821579;78;20891;-75
2021/11/10 03:44:31;;;;;;;2.42;1.27;;;;;;;-0.05;68.20;102782.46;1821454;78;21385;-74
2021/11/10 03:46:59;;;;;;;1.00;0.93;;;;;;;-0.09;68.13;102793.16;1821684;78;21109;-74
2021/11/10 03:49:27;;;;;;;1.52;1.37;;;;;;;-0.11;68.25;102790.97;1821626;78;20868;-75
2021/11/10 03:51:55;;;;;;;2.05;1.92;;;;;;;-0.14;68.33;102790.89;1789840;78;20923;-75
2021/11/10 03:54:24;;;;;;;2.80;1.02;;;;;;;-0.18;68.34;102798.53;1821564;78;20935;-73
2021/11/10 03:56:51;;;;;;;1.45;1.15;;;;;;;-0.24;68.47;102794.14;1821654;78;20963;-74
2021/11/10 03:59:18;;;;;;;1.70;1.32;;;;;;;-0.27;68.40;102808.24;1821449;78;21141;-74
2021/11/10 04:01:46;;;;;;;2.72;1.00;;;;;;;-0.31;68.41;102811.59;1821548;78;20923;-75
2021/11/10 04:04:13;;;;;;;1.65;1.02;;;;;;;-0.31;68.49;102818.03;1821639;78;20919;-76
2021/11/10 04:06:41;;;;;;;6.42;1.40;;;;;;;-0.33;68.58;102824.91;1821340;78;20938;-76
2021/11/10 04:09:08;;;;;;;2.35;2.15;;;;;;;-0.34;68.62;102817.98;1821711;78;20880;-75
2021/11/10 04:11:37;;;;;;;2.20;1.30;;;;;;;-0.37;68.78;102823.95;1821347;78;20871;-76
2021/11/10 04:14:05;;;;;;;2.80;1.55;;;;;;;-0.42;68.80;102820.42;1821313;78;20899;-76
2021/11/10 04:16:34;;;;;;;1.50;1.40;;;;;;;-0.45;68.84;102827.64;1813937;78;20935;-75
2021/11/10 04:19:01;;;;;;;3.77;1.47;;;;;;;-0.46;68.98;102837.94;1789398;80;21475;-76
2021/11/10 04:21:31;;;;;;;2.00;1.20;;;;;;;-0.46;68.96;102832.78;1789152;80;20856;-76
2021/11/10 04:24:00;;;;;;;3.40;1.60;;;;;;;-0.46;69.01;102838.80;1789436;80;21805;-76
2021/11/10 04:26:31;;;;;;;1.15;1.05;;;;;;;-0.45;68.90;102842.24;1789200;79;20840;-76
2021/11/10 04:28:58;;;;;;;2.37;1.30;;;;;;;-0.44;68.84;102846.16;1789204;79;20888;-77
2021/11/10 04:31:26;;;;;;;4.55;1.17;;;;;;;-0.44;68.83;102850.45;1789053;80;20848;-76
2021/11/10 04:33:53;;;;;;;1.92;1.40;;;;;;;-0.44;68.78;102847.86;1789341;79;20967;-77
2021/11/10 04:36:21;;;;;;;3.40;1.70;;;;;;;-0.45;68.79;102861.15;1789022;79;21521;-76
2021/11/10 04:38:50;;;;;;;5.15;1.70;;;;;;;-0.45;68.72;102866.30;1789358;80;20931;-76
2021/11/10 04:41:18;;;;;;;2.27;1.70;;;;;;;-0.47;68.80;102865.82;1788982;79;20840;-76
2021/11/10 04:43:45;;;;;;;3.92;1.57;;;;;;;-0.49;68.82;102871.36;1789114;79;20908;-75
2021/11/10 04:46:22;;;;;;;2.98;1.35;;;;;;;-0.49;68.78;102877.80;1789180;80;20923;-76
2021/11/10 04:48:44;;;;;;;2.22;1.52;;;;;;;-0.52;68.64;102879.03;1788719;79;21031;-76
2021/11/10 04:51:12;;;;;;;1.67;1.17;;;;;;;-0.54;68.61;102886.72;1789005;80;20927;-73
2021/11/10 04:53:42;;;;;;;2.35;1.42;;;;;;;-0.55;68.79;102890.58;1789409;80;21322;-75
2021/11/10 04:56:09;;;;;;;2.10;1.30;;;;;;;-0.53;68.80;102890.19;1789193;79;21740;-75
2021/11/10 04:58:36;;;;;;;2.52;1.07;;;;;;;-0.54;68.63;102899.61;1789151;79;20883;-76
2021/11/10 05:01:03;;;;;;;2.20;1.50;;;;;;;-0.59;68.62;102896.48;1789124;80;21134;-75
2021/11/10 05:03:31;;;;;;;7.72;4.00;;;;;;;-0.61;68.87;102896.87;1788784;80;20919;-76
2021/11/10 05:09:00;;;;;;;1.82;1.25;;;;;;;-0.56;68.93;102901.27;1871430;76;22728;-76
2021/11/10 05:11:29;;;;;;;3.55;2.00;;;;;;;-0.65;68.95;102901.06;1827703;77;20871;-77
2021/11/10 05:13:58;;;;;;;4.60;2.92;;;;;;;-0.65;69.08;102907.08;1827711;77;21358;-76
2021/11/10 05:16:27;;;;;;;4.87;2.30;;;;;;;-0.63;69.13;102909.70;1827581;78;20904;-76
2021/11/10 05:18:55;;;;;;;3.22;2.15;;;;;;;-0.65;69.07;102915.23;1791158;80;20966;-78
2021/11/10 05:21:22;;;;;;;1.87;1.40;;;;;;;-0.65;69.10;102921.67;1791334;80;21332;-76
2021/11/10 05:23:49;;;;;;;2.12;1.62;;;;;;;-0.62;69.26;102929.50;1791192;80;20926;-75
2021/11/10 05:26:16;;;;;;;2.10;1.85;;;;;;;-0.61;69.15;102938.09;1791270;78;21141;-77
2021/11/10 05:28:43;;;;;;;1.85;1.52;;;;;;;-0.64;69.14;102940.19;1791295;80;20883;-77
2021/11/10 05:31:10;;;;;;;1.90;1.55;;;;;;;-0.66;69.10;102943.14;1791430;80;20922;-78
2021/11/10 05:33:38;;;;;;;4.30;1.60;;;;;;;-0.66;69.22;102946.58;1791148;80;20962;-78
2021/11/10 05:36:05;;;;;;;2.02;1.42;;;;;;;-0.65;69.11;102949.59;1791326;80;20891;-77
2021/11/10 05:38:31;;;;;;;2.25;1.98;;;;;;;-0.61;68.95;102950.98;1791416;78;21544;-78
2021/11/10 05:40:58;;;;;;;3.55;1.57;;;;;;;-0.60;69.06;102953.60;1791217;80;21416;-79
2021/11/10 05:43:27;;;;;;;3.00;1.77;;;;;;;-0.55;69.02;102957.15;1791774;80;20875;-77
2021/11/10 05:45:53;;;;;;;4.03;1.82;;;;;;;-0.46;68.92;102961.66;1791418;80;20887;-78
2021/11/10 05:48:20;;;;;;;3.25;1.37;;;;;;;-0.30;68.72;102954.72;1791328;80;21357;-76
2021/11/10 05:50:47;;;;;;;2.85;1.98;;;;;;;0.03;68.45;102955.44;1791139;80;21547;-77
2021/11/10 05:53:14;;;;;;;2.50;1.80;;;;;;;0.46;68.03;102964.05;1791196;78;20903;-78
2021/11/10 05:55:42;;;;;;;2.33;2.12;;;;;;;0.98;66.74;102962.03;1791104;80;20890;-78
2021/11/10 05:58:10;;;;;;;4.33;2.35;;;;;;;1.22;65.22;102964.57;1791187;78;20922;-77
2021/11/10 06:00:37;;;;;;;6.40;2.20;;;;;;;1.27;64.61;102966.83;1791420;78;20906;-77
2021/11/10 06:03:04;;;;;;;5.00;1.65;;;;;;;1.20;64.15;102970.13;1791260;80;21033;-76
2021/11/10 06:05:31;;;;;;;4.22;2.67;;;;;;;1.05;63.67;102969.47;1791039;80;20831;-78
2021/11/10 06:07:58;;;;;;;3.12;2.25;;;;;;;0.83;63.89;102976.83;1791251;79;20993;-77
2021/11/10 06:10:25;;;;;;;3.58;2.12;;;;;;;0.68;64.32;102976.97;1791065;80;21008;-76
2021/11/10 06:12:53;;;;;;;2.17;1.60;;;;;;;0.57;64.64;102984.50;1791069;80;20961;-77
2021/11/10 06:15:19;;;;;;;3.20;1.42;;;;;;;0.47;64.65;102982.16;1791289;80;22109;-77
2021/11/10 06:17:46;;;;;;;5.75;2.08;;;;;;;0.33;64.79;102988.31;1791359;80;20915;-76
2021/11/10 06:20:13;;;;;;;2.87;1.70;;;;;;;0.25;65.18;102983.43;1790978;80;21394;-79
2021/11/10 06:22:41;;;;;;;2.77;1.65;;;;;;;0.25;65.39;102981.28;1790612;80;20867;-76
2021/11/10 06:25:09;;;;;;;2.47;1.40;;;;;;;0.25;65.62;102978.27;1790652;80;20915;-77
2021/11/10 06:27:38;;;;;;;3.00;1.72;;;;;;;0.28;65.58;102984.77;1790567;79;21168;-77
2021/11/10 06:30:06;;;;;;;3.85;1.92;;;;;;;0.29;65.42;102977.50;1790604;79;20978;-77
2021/11/10 06:32:32;;;;;;;2.58;1.65;;;;;;;0.28;65.25;102977.03;1790672;79;21479;-79
2021/11/10 06:35:00;;;;;;;1.37;1.25;;;;;;;0.26;65.39;102981.29;1790662;80;21005;-79
2021/11/10 06:37:27;;;;;;;2.77;1.35;;;;;;;0.24;65.26;102978.23;1790703;80;20816;-76
2021/11/10 06:39:53;;;;;;;3.90;1.30;;;;;;;0.19;65.31;102989.74;1785806;80;21130;-76
2021/11/10 06:42:20;;;;;;;1.98;1.42;;;;;;;0.19;65.24;102994.91;1790428;80;20915;-77
2021/11/10 06:44:48;;;;;;;4.10;2.02;;;;;;;0.18;65.23;102989.31;1790649;79;20867;-77
2021/11/10 06:47:16;;;;;;;1.50;1.30;;;;;;;0.16;65.13;102990.98;1790395;79;21425;-76
2021/11/10 06:49:43;;;;;;;3.92;2.77;;;;;;;0.15;65.27;102987.51;1790515;80;20958;-75
2021/11/10 06:52:11;;;;;;;5.25;1.50;;;;;;;0.12;65.25;102984.88;1790606;80;21341;-76
2021/11/10 06:54:39;;;;;;;2.05;1.27;;;;;;;0.14;65.12;102993.95;1790592;80;20903;-77
2021/11/10 06:57:06;;;;;;;1.85;1.32;;;;;;;0.16;65.04;102997.00;1790664;80;21420;-76
2021/11/10 06:59:33;;;;;;;2.83;1.60;;;;;;;0.16;65.31;103000.88;1790484;80;20969;-76
2021/11/10 07:02:00;;;;;;;2.30;1.57;;;;;;;0.22;65.33;103001.41;1790773;79;21040;-76
2021/11/10 07:04:27;;;;;;;3.67;1.60;;;;;;;0.27;65.04;103004.08;1790572;80;21114;-77
2021/11/10 07:06:54;;;;;;;2.58;1.65;;;;;;;0.31;64.78;103006.80;1790403;78;20891;-77
2021/11/10 07:09:22;;;;;;;2.15;1.80;;;;;;;0.33;64.76;103005.09;1790427;79;21353;-77
2021/11/10 07:11:48;;;;;;;3.92;1.57;;;;;;;0.39;64.89;103009.09;1790491;80;20926;-76
2021/11/10 07:14:15;;;;;;;2.12;1.67;;;;;;;0.48;64.58;103002.39;1790864;80;21452;-75
2021/11/10 07:16:42;;;;;;;1.70;1.40;;;;;;;0.53;64.43;103002.05;1790513;79;21497;-76
2021/11/10 07:19:10;;;;;;;2.85;1.60;;;;;;;0.57;64.06;103003.43;1790630;80;20831;-77
2021/11/10 07:21:36;;;;;;;1.70;1.50;;;;;;;0.56;63.75;103004.28;1790515;80;20951;-75
2021/11/10 07:24:04;;;;;;;2.35;1.45;;;;;;;0.55;63.76;103005.53;1790454;80;20907;-76
2021/11/10 07:26:32;;;;;;;2.65;1.70;;;;;;;0.57;63.74;103015.05;1790716;80;20946;-76
2021/11/10 07:28:59;;;;;;;4.67;1.57;;;;;;;0.61;63.43;103007.82;1791132;80;21711;-78
2021/11/10 07:31:26;;;;;;;3.90;1.32;;;;;;;0.58;63.31;102996.58;1790784;79;20883;-77
2021/11/10 07:33:54;;;;;;;1.85;1.30;;;;;;;0.57;63.27;103015.48;1790527;80;20969;-76
2021/11/10 07:36:24;;;;;;;2.65;1.30;;;;;;;0.59;63.21;103011.22;1790677;80;20962;-77
2021/11/10 07:38:55;;;;;;;2.40;1.15;;;;;;;0.57;62.95;103011.61;1791315;80;20879;-77
2021/11/10 07:41:26;;;;;;;2.17;1.65;;;;;;;0.57;63.33;103014.19;1790618;80;22117;-77
2021/11/10 07:43:53;;;;;;;3.37;1.70;;;;;;;0.64;63.13;103022.92;1790562;80;20891;-76
2021/11/10 07:46:23;;;;;;;3.22;2.22;;;;;;;0.66;63.06;103019.95;1790037;80;20872;-77
2021/11/10 07:48:50;;;;;;;1.27;1.17;;;;;;;0.68;63.20;103026.03;1790866;79;20958;-78
2021/11/10 07:51:18;;;;;;;4.92;1.60;;;;;;;0.72;62.94;103021.38;1790784;80;20883;-75
2021/11/10 07:53:46;;;;;;;3.62;1.50;;;;;;;0.75;62.91;103024.88;1760206;79;21111;-77
2021/11/10 07:56:13;;;;;;;2.08;1.62;;;;;;;0.79;62.84;103029.26;1790501;78;20852;-76
2021/11/10 07:58:40;;;;;;;2.37;1.30;;;;;;;0.86;62.80;103032.83;1790941;80;20844;-78
2021/11/10 08:01:08;;;;;;;3.80;2.02;;;;;;;0.90;62.56;103037.22;1790489;80;21389;-77
2021/11/10 08:03:36;;;;;;;3.87;1.82;;;;;;;0.90;62.31;103039.80;1790595;80;20942;-77
2021/11/10 08:06:03;;;;;;;2.20;1.40;;;;;;;0.86;62.60;103034.55;1790451;80;21125;-76
2021/11/10 08:08:30;;;;;;;2.35;1.80;;;;;;;0.91;63.11;103042.86;1790319;80;20883;-77
2021/11/10 08:11:00;;;;;;;3.12;1.92;;;;;;;1.02;63.16;103037.47;1790527;80;20855;-75
2021/11/10 08:13:28;;;;;;;5.37;1.70;;;;;;;1.13;62.77;103044.09;1790494;80;20867;-76
2021/11/10 08:15:56;;;;;;;2.27;1.35;;;;;;;1.20;62.43;103040.81;1790557;80;20887;-76
2021/11/10 08:18:23;;;;;;;1.70;1.45;;;;;;;1.23;62.01;103047.31;1790527;80;21176;-76
2021/11/10 08:20:50;;;;;;;2.27;1.80;;;;;;;1.19;62.18;103044.65;1790622;80;20828;-75
2021/11/10 08:23:22;;;;;;;4.00;2.10;;;;;;;1.15;62.51;103044.14;1790794;79;20848;-73
2021/11/10 08:25:49;;;;;;;1.75;1.65;;;;;;;1.18;62.23;103034.73;1790628;80;21036;-75
2021/11/10 08:28:17;;;;;;;3.65;1.45;;;;;;;1.24;62.23;103032.67;1790668;80;20931;-73
2021/11/10 08:30:45;;;;;;;4.15;1.90;;;;;;;1.23;61.95;103029.66;1790208;80;21919;-76
2021/11/10 08:33:12;;;;;;;3.52;2.15;;;;;;;1.26;61.85;103025.81;1790344;80;20946;-76
2021/11/10 08:35:39;;;;;;;2.77;1.32;;;;;;;1.31;61.88;103033.25;1790409;79;20985;-74
2021/11/10 08:38:07;;;;;;;1.72;1.50;;;;;;;1.36;61.76;103030.74;1790383;80;21475;-74
2021/11/10 08:40:36;;;;;;;3.45;1.98;;;;;;;1.32;61.67;103028.94;1790460;80;20922;-76
2021/11/10 08:43:03;;;;;;;2.85;1.87;;;;;;;1.30;61.55;103037.95;1790502;80;22179;-76
2021/11/10 08:45:35;;;;;;;4.22;2.35;;;;;;;1.33;61.43;103033.25;1790497;80;20886;-76
2021/11/10 08:48:04;;;;;;;2.58;1.60;;;;;;;1.35;61.39;103031.57;1790598;80;21396;-74
2021/11/10 08:50:35;;;;;;;2.45;1.42;;;;;;;1.28;60.93;103021.98;1790491;80;20859;-75
2021/11/10 08:53:03;;;;;;;10.03;3.30;;;;;;;1.20;61.23;103029.18;1790649;80;21359;-76
2021/11/10 08:55:32;;;;;;;2.50;1.57;;;;;;;1.15;61.11;103026.05;1790819;80;20871;-74
2021/11/10 08:57:59;;;;;;;2.17;1.70;;;;;;;1.11;61.45;103030.70;1790578;79;20836;-76
2021/11/10 09:00:29;;;;;;;3.83;1.82;;;;;;;1.07;61.02;103013.40;1790574;79;20926;-75
2021/11/10 09:02:57;;;;;;;2.40;2.20;;;;;;;1.03;61.24;103032.73;1790974;80;20915;-76
2021/11/10 09:05:24;;;;;;;3.35;2.08;;;;;;;1.01;61.29;103027.95;1790797;80;20935;-75
2021/11/10 09:07:51;;;;;;;2.45;1.67;;;;;;;1.00;62.05;103025.34;1790829;80;22141;-74
2021/11/10 09:10:20;;;;;;;3.55;1.62;;;;;;;1.05;62.26;103019.86;1796311;80;20863;-76
2021/11/10 09:12:49;;;;;;;4.87;1.65;;;;;;;1.11;62.20;103025.54;1796596;80;20870;-78
2021/11/10 09:15:16;;;;;;;2.45;1.65;;;;;;;1.16;62.35;103034.27;1796415;79;20859;-77
2021/11/10 09:17:43;;;;;;;1.60;1.47;;;;;;;1.20;61.94;103033.45;1796800;78;20982;-78
2021/11/10 09:20:17;;;;;;;5.40;2.72;;;;;;;1.21;62.20;103027.45;1796266;80;21141;-79
2021/11/10 09:22:44;;;;;;;2.27;1.72;;;;;;;1.23;62.23;103034.82;1796742;80;20950;-78
2021/11/10 09:25:13;;;;;;;3.60;2.05;;;;;;;1.32;62.33;103031.09;1796298;78;20879;-76
2021/11/10 09:27:40;;;;;;;2.30;1.87;;;;;;;1.43;61.48;103022.23;1796594;80;21064;-76
2021/11/10 09:30:10;;;;;;;2.12;2.02;;;;;;;1.51;61.08;103033.56;1796311;80;21341;-75
2021/11/10 09:32:39;;;;;;;4.33;1.80;;;;;;;1.66;60.60;103033.81;1796545;80;20851;-75
2021/11/10 09:35:08;;;;;;;2.47;1.65;;;;;;;1.98;59.96;103039.92;1796117;78;20843;-76
2021/11/10 09:37:36;;;;;;;4.47;1.77;;;;;;;2.48;59.44;103031.09;1796574;80;21448;-74
2021/11/10 09:40:06;;;;;;;2.72;1.80;;;;;;;3.17;58.21;103034.89;1796182;78;20922;-74
2021/11/10 09:42:35;;;;;;;2.50;1.90;;;;;;;3.90;56.50;103036.80;1796582;80;20919;-75
2021/11/10 09:45:06;;;;;;;6.55;2.25;;;;;;;4.71;54.35;103028.97;1796213;80;21071;-75
2021/11/10 09:47:37;;;;;;;2.87;1.50;;;;;;;5.47;52.86;103024.36;1796493;80;21404;-77
2021/11/10 09:50:06;;;;;;;2.40;1.52;;;;;;;6.22;50.98;103029.50;1796409;80;20961;-76
2021/11/10 09:52:33;;;;;;;1.98;1.57;;;;;;;6.93;48.78;103037.42;1796382;80;21052;-80
2021/11/10 09:55:01;;;;;;;2.20;1.95;;;;;;;7.56;47.14;103035.25;1796478;80;20863;-80
2021/11/10 09:57:29;;;;;;;3.02;1.40;;;;;;;8.10;45.43;103030.36;1796466;78;20992;-80
2021/11/10 09:59:55;;;;;;;1.75;1.65;;;;;;;8.55;44.52;103028.56;1796535;80;21355;-82
2021/11/10 10:02:25;;;;;;;4.78;1.32;;;;;;;8.79;43.00;103016.92;1796612;80;20938;-77
2021/11/10 10:04:52;;;;;;;2.22;1.12;;;;;;;8.95;42.48;103025.86;1796481;78;20879;-76
2021/11/10 10:07:21;;;;;;;1.90;1.45;;;;;;;8.89;41.01;103025.08;1796900;80;20984;-78
2021/11/10 10:09:48;;;;;;;2.10;1.50;;;;;;;8.64;41.56;103022.36;1792922;78;21317;-81
2021/11/10 10:12:18;;;;;;;2.15;1.42;;;;;;;8.59;42.31;103034.19;1791389;80;20938;-77
2021/11/10 10:14:47;;;;;;;6.10;1.80;;;;;;;8.71;43.12;103025.30;1790261;80;20887;-79
2021/11/10 10:17:40;;;;;;;3.85;1.60;;;;;;;8.99;42.73;103036.72;1790360;78;20891;-78
2021/11/10 10:20:29;;;;;;;2.25;2.10;;;;;;;9.09;41.58;103019.97;1788218;79;20928;-76
2021/11/10 10:22:59;;;;;;;3.02;1.72;;;;;;;9.01;41.71;103032.33;1765550;79;21113;-78
2021/11/10 10:25:49;;;;;;;2.08;1.67;;;;;;;8.72;41.49;103032.28;1790260;79;20950;-78
2021/11/10 10:28:23;;;;;;;2.15;1.57;;;;;;;8.66;41.48;103029.30;1790766;80;20907;-77
2021/11/10 10:30:54;;;;;;;1.62;1.25;;;;;;;8.71;41.98;103034.46;1787818;79;20902;-79
2021/11/10 10:33:25;;;;;;;3.55;1.50;;;;;;;8.85;41.99;103038.22;1790060;79;20855;-78
2021/11/10 10:36:03;;;;;;;1.50;1.40;;;;;;;8.97;41.65;103043.27;1789500;80;21133;-76
2021/11/10 10:38:53;;;;;;;1.52;1.42;;;;;;;9.16;40.67;103037.75;1789898;79;21566;-77
2021/11/10 10:41:29;;;;;;;1.70;1.50;;;;;;;9.20;40.83;103036.83;1790106;79;20883;-79
2021/11/10 10:43:57;;;;;;;2.42;1.67;;;;;;;9.41;41.15;103036.95;1790171;78;20931;-77
2021/11/10 10:46:30;;;;;;;2.08;1.50;;;;;;;9.51;40.46;103035.44;1790014;80;20974;-77
2021/11/10 10:49:13;;;;;;;4.65;1.52;;;;;;;9.52;40.55;103035.02;1790215;79;21164;-77
2021/11/10 10:51:42;;;;;;;1.57;1.47;;;;;;;9.45;40.52;103036.87;1786988;80;20972;-79
2021/11/10 10:54:09;;;;;;;2.30;1.90;;;;;;;9.41;40.29;103037.80;1789810;80;20986;-81
2021/11/10 10:56:38;;;;;;;2.62;1.32;;;;;;;9.17;39.46;103032.50;1790163;80;20946;-80
2021/11/10 10:59:08;;;;;;;2.67;1.52;;;;;;;8.74;39.65;103024.39;1790449;79;21368;-77
2021/11/10 11:01:42;;;;;;;3.37;1.70;;;;;;;7.99;40.44;103026.14;1790837;79;21989;-79
2021/11/10 11:04:15;;;;;;;1.98;1.72;;;;;;;7.37;42.02;103026.69;1790562;79;20911;-79
2021/11/10 11:06:48;;;;;;;6.92;1.50;;;;;;;6.87;42.98;103015.28;1790367;80;20918;-78
2021/11/10 11:09:23;;;;;;;2.25;1.12;;;;;;;6.54;43.79;103014.61;1792308;78;20970;-77
2021/11/10 11:12:05;;;;;;;1.98;1.77;;;;;;;6.36;43.96;103012.95;1796137;80;20992;-79
2021/11/10 11:17:23;;;;;;;2.08;1.50;;;;;;;5.72;45.42;103014.80;1796341;78;20887;-78
2021/11/10 11:19:58;;;;;;;2.52;1.80;;;;;;;5.43;45.88;103003.10;1796257;78;20882;-80
2021/11/10 11:22:27;;;;;;;2.87;1.92;;;;;;;5.33;46.94;103006.55;1796223;80;20954;-78
2021/11/10 11:24:54;;;;;;;2.22;1.80;;;;;;;5.26;46.95;103006.98;1796359;78;20891;-79
2021/11/10 11:27:29;;;;;;;2.05;1.80;;;;;;;5.22;47.71;103013.48;1796723;80;21757;-78
2021/11/10 11:30:11;;;;;;;1.90;1.75;;;;;;;5.18;47.48;103003.53;1796404;80;20852;-78
2021/11/10 11:32:47;;;;;;;2.52;2.33;;;;;;;5.10;47.79;103009.15;1796401;80;20918;-77
2021/11/10 11:35:27;;;;;;;2.50;1.82;;;;;;;4.98;48.12;102997.00;1796183;80;20970;-83
2021/11/10 11:37:54;;;;;;;3.40;1.60;;;;;;;5.02;48.32;103003.06;1796261;80;21444;-75
2021/11/10 11:40:22;;;;;;;2.85;2.37;;;;;;;5.02;48.62;103003.06;1796304;80;21110;-78
2021/11/10 11:42:53;;;;;;;2.15;1.95;;;;;;;5.02;48.75;103001.31;1795873;80;20942;-77
2021/11/10 11:45:21;;;;;;;2.47;1.87;;;;;;;5.01;48.81;103000.90;1796198;78;20870;-76